sensor_id;sensor_type;location;lat;lon;timestamp;P1;durP1;ratioP1;P2;durP2;ratioP2
793;SDS011;380;48.738;9.214;2022-09-25T15:56:04;7.80;;;6.43;;
793;SDS011;380;48.738;9.214;2022-09-25T15:58:35;7.25;;;6.20;;
793;SDS011;380;48.738;9.214;2022-09-25T16:01:25;7.68;;;6.45;;
793;SDS011;380;48.738;9.214;2022-09-25T16:04:14;8.63;;;6.47;;
793;SDS011;380;48.738;9.214;2022-09-25T16:06:59;10.20;;;7.15;;
793;SDS011;380;48.738;9.214;2022-09-25T16:09:31;7.22;;;6.15;;
793;SDS011;380;48.738;9.214;2022-09-25T16:17:57;6.40;;;5.30;;
793;SDS011;380;48.738;9.214;2022-09-25T16:20:28;11.25;;;6.13;;
793;SDS011;380;48.738;9.214;2022-09-25T16:22:55;5.85;;;5.25;;
793;SDS011;380;48.738;9.214;2022-09-25T16:25:29;5.95;;;4.68;;
793;SDS011;380;48.738;9.214;2022-09-25T16:28:06;6.78;;;5.82;;
793;SDS011;380;48.738;9.214;2022-09-25T16:30:35;6.88;;;5.80;;
793;SDS011;380;48.738;9.214;2022-09-25T16:33:11;7.10;;;5.13;;
793;SDS011;380;48.738;9.214;2022-09-25T16:35:40;8.05;;;5.72;;
793;SDS011;380;48.738;9.214;2022-09-25T16:38:24;5.50;;;4.70;;
793;SDS011;380;48.738;9.214;2022-09-25T16:43:35;6.10;;;3.92;;
793;SDS011;380;48.738;9.214;2022-09-25T16:46:24;6.65;;;4.90;;
793;SDS011;380;48.738;9.214;2022-09-25T16:49:03;7.53;;;5.30;;
793;SDS011;380;48.738;9.214;2022-09-25T16:51:29;6.20;;;5.60;;
793;SDS011;380;48.738;9.214;2022-09-25T16:53:59;7.10;;;4.90;;
793;SDS011;380;48.738;9.214;2022-09-25T16:56:26;4.57;;;4.13;;
793;SDS011;380;48.738;9.214;2022-09-25T16:58:55;4.57;;;3.75;;
793;SDS011;380;48.738;9.214;2022-09-25T17:01:24;6.55;;;5.53;;
793;SDS011;380;48.738;9.214;2022-09-25T17:03:51;5.20;;;4.32;;
793;SDS011;380;48.738;9.214;2022-09-25T17:06:24;4.53;;;3.80;;
793;SDS011;380;48.738;9.214;2022-09-25T17:08:52;5.85;;;4.10;;
793;SDS011;380;48.738;9.214;2022-09-25T17:13:47;5.38;;;3.47;;
793;SDS011;380;48.738;9.214;2022-09-25T17:16:19;5.15;;;3.75;;
793;SDS011;380;48.738;9.214;2022-09-25T17:18:48;4.97;;;4.32;;
793;SDS011;380;48.738;9.214;2022-09-25T17:21:16;3.88;;;3.22;;
793;SDS011;380;48.738;9.214;2022-09-25T17:23:55;5.93;;;3.90;;
793;SDS011;380;48.738;9.214;2022-09-25T17:26:24;4.93;;;3.67;;
793;SDS011;380;48.738;9.214;2022-09-25T17:28:59;5.75;;;4.05;;
793;SDS011;380;48.738;9.214;2022-09-25T17:31:34;4.97;;;4.32;;
793;SDS011;380;48.738;9.214;2022-09-25T17:34:01;5.03;;;3.92;;
793;SDS011;380;48.738;9.214;2022-09-25T17:36:40;3.13;;;2.83;;
793;SDS011;380;48.738;9.214;2022-09-25T17:39:09;6.55;;;3.95;;
793;SDS011;380;48.738;9.214;2022-09-25T17:41:38;4.63;;;3.40;;
793;SDS011;380;48.738;9.214;2022-09-25T17:44:11;7.88;;;4.80;;
793;SDS011;380;48.738;9.214;2022-09-25T17:46:40;7.00;;;5.38;;
793;SDS011;380;48.738;9.214;2022-09-25T17:49:09;9.57;;;5.88;;
793;SDS011;380;48.738;9.214;2022-09-25T17:51:38;7.90;;;5.78;;
793;SDS011;380;48.738;9.214;2022-09-25T17:54:06;9.20;;;5.93;;
793;SDS011;380;48.738;9.214;2022-09-25T17:56:32;9.63;;;6.70;;
793;SDS011;380;48.738;9.214;2022-09-25T17:59:04;7.57;;;6.57;;
793;SDS011;380;48.738;9.214;2022-09-25T18:01:33;10.38;;;6.72;;
793;SDS011;380;48.738;9.214;2022-09-25T18:04:21;9.48;;;7.40;;
793;SDS011;380;48.738;9.214;2022-09-25T18:06:50;9.52;;;7.00;;
793;SDS011;380;48.738;9.214;2022-09-25T18:09:19;7.88;;;5.88;;
793;SDS011;380;48.738;9.214;2022-09-25T18:11:45;7.65;;;6.07;;
793;SDS011;380;48.738;9.214;2022-09-25T18:14:14;7.25;;;6.45;;
793;SDS011;380;48.738;9.214;2022-09-25T18:16:41;9.55;;;7.35;;
793;SDS011;380;48.738;9.214;2022-09-25T18:19:15;9.02;;;8.13;;
793;SDS011;380;48.738;9.214;2022-09-25T18:22:03;9.38;;;8.25;;
793;SDS011;380;48.738;9.214;2022-09-25T18:25:01;8.35;;;7.55;;
793;SDS011;380;48.738;9.214;2022-09-25T18:27:37;10.80;;;8.82;;
793;SDS011;380;48.738;9.214;2022-09-25T18:30:06;9.90;;;8.20;;
793;SDS011;380;48.738;9.214;2022-09-25T18:32:42;10.07;;;7.97;;
793;SDS011;380;48.738;9.214;2022-09-25T18:35:09;10.80;;;8.43;;
793;SDS011;380;48.738;9.214;2022-09-25T18:37:35;10.63;;;8.45;;
793;SDS011;380;48.738;9.214;2022-09-25T18:40:04;9.50;;;8.48;;
793;SDS011;380;48.738;9.214;2022-09-25T18:42:40;11.48;;;9.75;;
793;SDS011;380;48.738;9.214;2022-09-25T18:45:06;14.65;;;10.18;;
793;SDS011;380;48.738;9.214;2022-09-25T18:47:39;10.38;;;8.38;;
793;SDS011;380;48.738;9.214;2022-09-25T18:50:09;11.60;;;9.85;;
793;SDS011;380;48.738;9.214;2022-09-25T18:52:41;11.25;;;9.73;;
793;SDS011;380;48.738;9.214;2022-09-25T18:55:07;11.77;;;9.13;;
793;SDS011;380;48.738;9.214;2022-09-25T18:57:43;11.80;;;9.02;;
793;SDS011;380;48.738;9.214;2022-09-25T19:00:18;10.98;;;9.40;;
793;SDS011;380;48.738;9.214;2022-09-25T19:02:50;13.70;;;10.70;;
793;SDS011;380;48.738;9.214;2022-09-25T19:05:25;12.40;;;10.40;;
793;SDS011;380;48.738;9.214;2022-09-25T19:07:52;14.77;;;10.88;;
793;SDS011;380;48.738;9.214;2022-09-25T19:10:21;11.98;;;8.98;;
793;SDS011;380;48.738;9.214;2022-09-25T19:12:48;15.52;;;11.00;;
793;SDS011;380;48.738;9.214;2022-09-25T19:15:17;13.48;;;11.13;;
793;SDS011;380;48.738;9.214;2022-09-25T19:17:46;11.05;;;9.82;;
793;SDS011;380;48.738;9.214;2022-09-25T19:20:22;11.98;;;9.98;;
793;SDS011;380;48.738;9.214;2022-09-25T19:22:50;15.93;;;10.43;;
793;SDS011;380;48.738;9.214;2022-09-25T19:25:18;12.10;;;10.65;;
793;SDS011;380;48.738;9.214;2022-09-25T19:27:53;13.05;;;11.60;;
793;SDS011;380;48.738;9.214;2022-09-25T19:30:19;19.65;;;12.30;;
793;SDS011;380;48.738;9.214;2022-09-25T19:32:51;15.35;;;11.43;;
793;SDS011;380;48.738;9.214;2022-09-25T19:35:23;13.27;;;9.98;;
793;SDS011;380;48.738;9.214;2022-09-25T19:37:59;15.27;;;11.98;;
793;SDS011;380;48.738;9.214;2022-09-25T19:40:36;15.88;;;12.30;;
793;SDS011;380;48.738;9.214;2022-09-25T19:43:14;17.83;;;13.35;;
793;SDS011;380;48.738;9.214;2022-09-25T19:45:53;13.40;;;11.15;;
793;SDS011;380;48.738;9.214;2022-09-25T19:48:30;17.55;;;13.40;;
793;SDS011;380;48.738;9.214;2022-09-25T19:51:06;15.07;;;11.20;;
793;SDS011;380;48.738;9.214;2022-09-25T19:53:41;15.65;;;11.48;;
793;SDS011;380;48.738;9.214;2022-09-25T19:56:14;13.75;;;11.93;;
793;SDS011;380;48.738;9.214;2022-09-25T20:01:29;19.08;;;14.00;;
793;SDS011;380;48.738;9.214;2022-09-25T20:04:11;13.95;;;11.38;;
793;SDS011;380;48.738;9.214;2022-09-25T20:09:30;14.52;;;11.68;;
793;SDS011;380;48.738;9.214;2022-09-25T20:11:58;11.73;;;10.15;;
793;SDS011;380;48.738;9.214;2022-09-25T20:14:35;15.55;;;10.55;;
793;SDS011;380;48.738;9.214;2022-09-25T20:17:07;15.25;;;10.68;;
793;SDS011;380;48.738;9.214;2022-09-25T20:19:34;12.02;;;10.55;;
793;SDS011;380;48.738;9.214;2022-09-25T20:22:05;11.40;;;8.88;;
793;SDS011;380;48.738;9.214;2022-09-25T20:24:46;11.88;;;10.55;;
793;SDS011;380;48.738;9.214;2022-09-25T20:27:13;15.25;;;11.65;;
793;SDS011;380;48.738;9.214;2022-09-25T20:30:06;10.68;;;9.55;;
793;SDS011;380;48.738;9.214;2022-09-25T20:35:12;11.10;;;9.30;;
793;SDS011;380;48.738;9.214;2022-09-25T20:37:44;12.15;;;10.18;;
793;SDS011;380;48.738;9.214;2022-09-25T20:40:11;13.52;;;9.82;;
793;SDS011;380;48.738;9.214;2022-09-25T20:42:51;12.32;;;8.98;;
793;SDS011;380;48.738;9.214;2022-09-25T20:45:20;13.52;;;10.20;;
793;SDS011;380;48.738;9.214;2022-09-25T20:47:54;11.32;;;9.80;;
793;SDS011;380;48.738;9.214;2022-09-25T20:50:23;12.00;;;10.05;;
793;SDS011;380;48.738;9.214;2022-09-25T20:53:01;12.88;;;10.60;;
793;SDS011;380;48.738;9.214;2022-09-25T20:55:33;11.30;;;10.07;;
793;SDS011;380;48.738;9.214;2022-09-25T20:58:02;11.57;;;10.38;;
793;SDS011;380;48.738;9.214;2022-09-25T21:00:31;15.27;;;9.95;;
793;SDS011;380;48.738;9.214;2022-09-25T21:03:00;12.75;;;11.02;;
793;SDS011;380;48.738;9.214;2022-09-25T21:05:27;12.45;;;9.70;;
793;SDS011;380;48.738;9.214;2022-09-25T21:08:08;10.82;;;9.23;;
793;SDS011;380;48.738;9.214;2022-09-25T21:10:40;12.68;;;9.57;;
793;SDS011;380;48.738;9.214;2022-09-25T21:13:13;15.27;;;9.98;;
793;SDS011;380;48.738;9.214;2022-09-25T21:15:45;10.25;;;9.07;;
793;SDS011;380;48.738;9.214;2022-09-25T21:18:20;13.35;;;10.20;;
793;SDS011;380;48.738;9.214;2022-09-25T21:20:50;9.68;;;8.38;;
793;SDS011;380;48.738;9.214;2022-09-25T21:23:19;14.25;;;9.02;;
793;SDS011;380;48.738;9.214;2022-09-25T21:26:09;12.70;;;8.43;;
793;SDS011;380;48.738;9.214;2022-09-25T21:28:45;15.02;;;8.95;;
793;SDS011;380;48.738;9.214;2022-09-25T21:31:22;12.55;;;7.22;;
793;SDS011;380;48.738;9.214;2022-09-25T21:33:56;9.45;;;8.38;;
793;SDS011;380;48.738;9.214;2022-09-25T21:37:00;10.00;;;8.00;;
793;SDS011;380;48.738;9.214;2022-09-25T21:42:22;11.18;;;7.57;;
793;SDS011;380;48.738;9.214;2022-09-25T21:44:48;10.38;;;7.68;;
793;SDS011;380;48.738;9.214;2022-09-25T21:47:17;9.90;;;7.25;;
793;SDS011;380;48.738;9.214;2022-09-25T21:49:51;8.48;;;5.97;;
793;SDS011;380;48.738;9.214;2022-09-25T21:52:20;7.03;;;5.90;;
793;SDS011;380;48.738;9.214;2022-09-25T21:54:48;7.05;;;5.75;;
793;SDS011;380;48.738;9.214;2022-09-25T21:57:21;9.55;;;6.20;;
793;SDS011;380;48.738;9.214;2022-09-25T22:00:14;8.63;;;5.93;;
793;SDS011;380;48.738;9.214;2022-09-25T22:02:43;8.70;;;6.85;;
793;SDS011;380;48.738;9.214;2022-09-25T22:05:13;12.52;;;6.07;;
793;SDS011;380;48.738;9.214;2022-09-25T22:07:45;6.63;;;5.45;;
793;SDS011;380;48.738;9.214;2022-09-25T22:10:27;8.38;;;6.38;;
793;SDS011;380;48.738;9.214;2022-09-25T22:12:53;9.07;;;5.65;;
793;SDS011;380;48.738;9.214;2022-09-25T22:15:30;8.52;;;5.32;;
793;SDS011;380;48.738;9.214;2022-09-25T22:18:05;5.93;;;4.68;;
793;SDS011;380;48.738;9.214;2022-09-25T22:20:32;13.70;;;5.75;;
793;SDS011;380;48.738;9.214;2022-09-25T22:23:04;7.97;;;5.03;;
793;SDS011;380;48.738;9.214;2022-09-25T22:25:33;7.85;;;6.22;;
793;SDS011;380;48.738;9.214;2022-09-25T22:28:24;7.13;;;5.05;;
793;SDS011;380;48.738;9.214;2022-09-25T22:30:53;9.40;;;4.95;;
793;SDS011;380;48.738;9.214;2022-09-25T22:33:25;6.28;;;5.20;;
793;SDS011;380;48.738;9.214;2022-09-25T22:36:04;8.68;;;6.63;;
793;SDS011;380;48.738;9.214;2022-09-25T22:38:31;7.38;;;5.47;;
793;SDS011;380;48.738;9.214;2022-09-25T22:41:04;8.10;;;6.10;;
793;SDS011;380;48.738;9.214;2022-09-25T22:43:33;7.68;;;5.05;;
793;SDS011;380;48.738;9.214;2022-09-25T22:46:02;5.63;;;4.68;;
793;SDS011;380;48.738;9.214;2022-09-25T22:48:31;8.77;;;6.18;;
793;SDS011;380;48.738;9.214;2022-09-25T22:51:14;11.38;;;6.93;;
793;SDS011;380;48.738;9.214;2022-09-25T22:53:52;10.95;;;5.38;;
793;SDS011;380;48.738;9.214;2022-09-25T22:56:24;7.38;;;5.63;;
793;SDS011;380;48.738;9.214;2022-09-25T23:01:47;8.77;;;6.43;;
793;SDS011;380;48.738;9.214;2022-09-25T23:04:24;11.10;;;8.05;;
793;SDS011;380;48.738;9.214;2022-09-25T23:06:56;8.50;;;6.90;;
793;SDS011;380;48.738;9.214;2022-09-25T23:09:32;10.57;;;7.38;;
793;SDS011;380;48.738;9.214;2022-09-25T23:12:16;12.73;;;8.68;;
793;SDS011;380;48.738;9.214;2022-09-25T23:14:49;10.52;;;7.47;;
793;SDS011;380;48.738;9.214;2022-09-25T23:20:10;10.57;;;7.82;;
793;SDS011;380;48.738;9.214;2022-09-25T23:22:42;11.98;;;8.38;;
793;SDS011;380;48.738;9.214;2022-09-25T23:25:09;10.50;;;8.25;;
793;SDS011;380;48.738;9.214;2022-09-25T23:27:40;12.35;;;7.40;;
793;SDS011;380;48.738;9.214;2022-09-25T23:30:07;9.55;;;8.50;;
793;SDS011;380;48.738;9.214;2022-09-25T23:32:39;9.60;;;8.60;;
793;SDS011;380;48.738;9.214;2022-09-25T23:35:15;9.50;;;8.50;;
793;SDS011;380;48.738;9.214;2022-09-25T23:37:52;11.18;;;9.48;;
793;SDS011;380;48.738;9.214;2022-09-25T23:43:11;11.13;;;7.72;;
793;SDS011;380;48.738;9.214;2022-09-25T23:45:46;12.38;;;8.32;;
793;SDS011;380;48.738;9.214;2022-09-25T23:48:40;9.80;;;8.43;;
793;SDS011;380;48.738;9.214;2022-09-25T23:51:24;9.25;;;7.93;;
793;SDS011;380;48.738;9.214;2022-09-25T23:53:54;11.77;;;7.97;;
793;SDS011;380;48.738;9.214;2022-09-25T23:56:28;8.82;;;7.45;;
793;SDS011;380;48.738;9.214;2022-09-25T23:58:55;7.68;;;6.88;;
